METAR Data
IDs: Format: Raw Decoded Include TAF

Data at: 1346 UTC 14 Dec 2019

METAR for:KCSQ (Creston Muni, IA, US)
Text:KCSQ 141335Z AUTO 32015KT 9SM OVC014 M06/M05 A2991 RMK AO2
Temperature: -6.0°C ( 21°F)
Dewpoint: -5.0°C ( 23°F) [RH = 108%]
Pressure (altimeter):29.91 inches Hg (1013.0 mb)
Winds:from the NW (320 degrees) at 17 MPH (15 knots; 7.7 m/s)
Visibility: 9 sm ( 14 km)
Ceiling:1400 feet AGL
Clouds: overcast cloud deck at 1400 feet AGL
QC Flag:automated observation with no human augmentation